createdAt,value
2017-10-13T00:00:43.596Z,10.49
2017-10-13T00:01:44.212Z,10.49
2017-10-13T00:02:44.820Z,10.53
2017-10-13T00:03:45.428Z,10.51
2017-10-13T00:04:46.030Z,10.57
2017-10-13T00:05:46.632Z,10.49
2017-10-13T00:06:47.237Z,10.47
2017-10-13T00:07:47.846Z,10.37
2017-10-13T00:08:48.452Z,10.38
2017-10-13T00:09:49.062Z,10.45
2017-10-13T00:10:49.666Z,10.39
2017-10-13T00:11:50.264Z,10.47
2017-10-13T00:12:50.868Z,10.39
2017-10-13T00:13:51.475Z,10.45
2017-10-13T00:14:52.072Z,10.49
2017-10-13T00:15:52.666Z,10.41
2017-10-13T00:16:53.276Z,10.32
2017-10-13T00:17:53.872Z,10.37
2017-10-13T00:18:54.476Z,10.31
2017-10-13T00:19:55.077Z,10.29
2017-10-13T00:20:55.678Z,10.34
2017-10-13T00:21:56.292Z,10.27
2017-10-13T00:22:56.896Z,10.22
2017-10-13T00:23:57.513Z,10.24
2017-10-13T00:24:58.098Z,10.17
2017-10-13T00:25:58.705Z,10.20
2017-10-13T00:26:59.309Z,10.20
2017-10-13T00:27:59.904Z,10.22
2017-10-13T00:29:00.500Z,10.22
2017-10-13T00:30:01.109Z,10.19
2017-10-13T00:31:01.733Z,10.16
2017-10-13T00:32:02.327Z,10.19
2017-10-13T00:33:02.930Z,10.06
2017-10-13T00:34:03.542Z,10.09
2017-10-13T00:35:04.150Z,10.14
2017-10-13T00:36:04.757Z,10.09
2017-10-13T00:37:05.365Z,10.01
2017-10-13T00:38:05.967Z,10.02
2017-10-13T00:39:06.568Z,10.06
2017-10-13T00:40:07.175Z,10.08
2017-10-13T00:41:07.783Z,10.05
2017-10-13T00:42:08.392Z,9.99
2017-10-13T00:43:08.994Z,10.01
2017-10-13T00:44:09.601Z,10.02
2017-10-13T00:45:10.197Z,9.98
2017-10-13T00:46:10.801Z,9.95
2017-10-13T00:47:11.409Z,9.90
2017-10-13T00:48:12.007Z,9.87
2017-10-13T00:49:12.612Z,9.77
2017-10-13T00:50:13.216Z,9.94
2017-10-13T00:51:13.837Z,9.79
2017-10-13T00:52:14.430Z,9.94
2017-10-13T00:53:15.037Z,9.88
2017-10-13T00:54:15.640Z,9.81
2017-10-13T00:55:16.248Z,9.79
2017-10-13T00:56:16.852Z,9.81
2017-10-13T00:57:17.458Z,9.84
2017-10-13T00:58:18.067Z,9.88
2017-10-13T00:59:18.662Z,9.90
2017-10-13T01:00:19.267Z,9.90
2017-10-13T01:01:19.873Z,9.77
2017-10-13T01:02:20.473Z,9.79
2017-10-13T01:03:21.075Z,9.79
2017-10-13T01:04:21.678Z,9.79
2017-10-13T01:05:22.274Z,9.79
2017-10-13T01:06:22.877Z,9.77
2017-10-13T01:07:23.483Z,9.76
2017-10-13T01:08:24.080Z,9.80
2017-10-13T01:09:24.673Z,9.79
2017-10-13T01:10:25.277Z,9.76
2017-10-13T01:11:25.884Z,9.68
2017-10-13T01:12:26.490Z,9.74
2017-10-13T01:13:27.097Z,9.77
2017-10-13T01:14:27.686Z,9.77
2017-10-13T01:15:28.289Z,9.66
2017-10-13T01:16:28.901Z,9.71
2017-10-13T01:17:29.490Z,9.63
2017-10-13T01:18:30.085Z,9.62
2017-10-13T01:19:30.683Z,9.68
2017-10-13T01:20:31.291Z,9.66
2017-10-13T01:21:31.896Z,9.61
2017-10-13T01:22:32.501Z,9.53
2017-10-13T01:23:33.108Z,9.62
2017-10-13T01:24:33.714Z,9.65
2017-10-13T01:25:34.317Z,9.65
2017-10-13T01:26:34.916Z,9.56
2017-10-13T01:27:35.528Z,9.59
2017-10-13T01:28:36.127Z,9.61
2017-10-13T01:29:36.733Z,9.56
2017-10-13T01:30:37.337Z,9.66
2017-10-13T01:31:37.942Z,9.65
2017-10-13T01:32:38.547Z,9.62
2017-10-13T01:33:39.146Z,9.56
2017-10-13T01:34:39.743Z,9.53
2017-10-13T01:35:40.334Z,9.54
2017-10-13T01:36:40.936Z,9.68
2017-10-13T01:37:41.533Z,9.65
2017-10-13T01:38:42.290Z,9.74
2017-10-13T01:39:42.858Z,9.74
2017-10-13T01:40:43.455Z,9.77
2017-10-13T01:41:44.060Z,9.81
2017-10-13T01:42:44.665Z,9.88
2017-10-13T01:43:45.275Z,9.77
2017-10-13T01:44:45.868Z,9.81
2017-10-13T01:45:46.467Z,9.83
2017-10-13T01:46:47.063Z,9.88
2017-10-13T01:47:47.668Z,9.84
2017-10-13T01:48:48.277Z,9.95
2017-10-13T01:49:48.879Z,9.98
2017-10-13T01:50:49.475Z,9.99
2017-10-13T01:51:50.082Z,10.05
2017-10-13T01:52:50.688Z,9.99
2017-10-13T01:53:51.297Z,10.13
2017-10-13T01:54:51.893Z,10.17
2017-10-13T01:55:52.497Z,10.16
2017-10-13T01:56:53.107Z,10.05
2017-10-13T01:57:53.713Z,10.08
2017-10-13T01:58:54.322Z,10.04
2017-10-13T01:59:54.926Z,10.09
2017-10-13T02:00:55.534Z,9.99
2017-10-13T02:01:56.140Z,10.12
2017-10-13T02:02:56.752Z,10.14
2017-10-13T02:03:57.358Z,10.22
2017-10-13T02:04:57.955Z,10.19
2017-10-13T02:05:58.560Z,10.17
2017-10-13T02:06:59.166Z,10.19
2017-10-13T02:07:59.763Z,10.19
2017-10-13T02:09:00.368Z,10.13
2017-10-13T02:10:00.976Z,10.08
2017-10-13T02:11:01.574Z,10.23
2017-10-13T02:12:02.179Z,10.16
2017-10-13T02:13:02.784Z,10.17
2017-10-13T02:14:03.393Z,10.14
2017-10-13T02:15:03.996Z,10.19
2017-10-13T02:16:04.605Z,10.19
2017-10-13T02:17:05.231Z,10.19
2017-10-13T02:18:05.817Z,10.17
2017-10-13T02:19:06.421Z,10.20
2017-10-13T02:20:07.019Z,10.22
2017-10-13T02:21:07.617Z,10.22
2017-10-13T02:22:08.222Z,10.17
2017-10-13T02:23:08.829Z,10.17
2017-10-13T02:24:09.441Z,10.09
2017-10-13T02:25:10.047Z,10.16
2017-10-13T02:26:10.657Z,10.08
2017-10-13T02:27:11.263Z,10.01
2017-10-13T02:28:11.866Z,9.96
2017-10-13T02:29:12.475Z,10.06
2017-10-13T02:30:13.084Z,10.04
2017-10-13T02:31:13.690Z,10.05
2017-10-13T02:32:14.302Z,10.06
2017-10-13T02:33:14.908Z,10.05
2017-10-13T02:34:15.510Z,9.99
2017-10-13T02:35:16.121Z,10.09
2017-10-13T02:36:16.714Z,10.09
2017-10-13T02:37:17.327Z,10.13
2017-10-13T02:38:17.935Z,10.09
2017-10-13T02:39:18.548Z,10.13
2017-10-13T02:40:19.152Z,10.17
2017-10-13T02:41:19.757Z,10.06
2017-10-13T02:42:20.353Z,10.23
2017-10-13T02:43:20.960Z,10.19
2017-10-13T02:44:21.567Z,10.20
2017-10-13T02:45:22.171Z,10.19
2017-10-13T02:46:22.772Z,10.20
2017-10-13T02:47:23.377Z,10.32
2017-10-13T02:48:23.973Z,10.37
2017-10-13T02:49:24.568Z,10.37
2017-10-13T02:50:25.177Z,10.37
2017-10-13T02:51:25.773Z,10.39
2017-10-13T02:52:26.366Z,10.47
2017-10-13T02:53:26.973Z,10.51
2017-10-13T02:54:27.580Z,10.54
2017-10-13T02:55:28.190Z,10.51
2017-10-13T02:56:28.801Z,10.51
2017-10-13T02:57:29.402Z,10.53
2017-10-13T02:58:30.003Z,10.63
2017-10-13T02:59:30.609Z,10.58
2017-10-13T03:00:31.219Z,10.56
2017-10-13T03:01:31.824Z,10.66
2017-10-13T03:02:32.430Z,10.60
2017-10-13T03:03:33.039Z,10.63
2017-10-13T03:04:33.647Z,10.60
2017-10-13T03:05:34.255Z,10.69
2017-10-13T03:06:34.864Z,10.67
2017-10-13T03:07:35.467Z,10.78
2017-10-13T03:08:36.064Z,10.74
2017-10-13T03:09:36.671Z,10.82
2017-10-13T03:10:37.278Z,10.76
2017-10-13T03:11:37.891Z,10.72
2017-10-13T03:12:38.496Z,10.71
2017-10-13T03:13:39.106Z,10.85
2017-10-13T03:14:39.704Z,10.79
2017-10-13T03:15:40.301Z,10.91
2017-10-13T03:16:40.905Z,10.81
2017-10-13T03:17:41.515Z,10.83
2017-10-13T03:18:42.120Z,10.79
2017-10-13T03:19:42.723Z,10.87
2017-10-13T03:20:43.331Z,10.91
2017-10-13T03:21:43.935Z,11.01
2017-10-13T03:22:44.545Z,10.94
2017-10-13T03:23:45.137Z,10.99
2017-10-13T03:24:45.741Z,10.97
2017-10-13T03:25:46.351Z,11.00
2017-10-13T03:26:46.960Z,10.99
2017-10-13T03:27:47.564Z,11.00
2017-10-13T03:28:48.159Z,10.99
2017-10-13T03:29:48.755Z,11.08
2017-10-13T03:30:49.366Z,11.04
2017-10-13T03:31:49.973Z,11.07
2017-10-13T03:32:50.584Z,11.15
2017-10-13T03:33:51.186Z,11.11
2017-10-13T03:34:51.799Z,11.18
2017-10-13T03:35:52.403Z,11.15
2017-10-13T03:36:53.014Z,11.19
2017-10-13T03:37:53.622Z,11.18
2017-10-13T03:38:54.230Z,11.22
2017-10-13T03:39:54.840Z,11.27
2017-10-13T03:40:55.450Z,11.29
2017-10-13T03:41:56.060Z,11.33
2017-10-13T03:42:56.664Z,11.33
2017-10-13T03:43:57.273Z,11.36
2017-10-13T03:44:57.880Z,11.48
2017-10-13T03:45:58.485Z,11.45
2017-10-13T03:46:59.097Z,11.44
2017-10-13T03:47:59.702Z,11.48
2017-10-13T03:49:00.299Z,11.51
2017-10-13T03:50:00.898Z,11.51
2017-10-13T03:51:01.493Z,11.52
2017-10-13T03:52:02.107Z,11.54
2017-10-13T03:53:02.700Z,11.55
2017-10-13T03:54:03.311Z,11.63
2017-10-13T03:55:03.906Z,11.66
2017-10-13T03:56:04.518Z,11.67
2017-10-13T03:57:05.115Z,11.76
2017-10-13T03:58:05.719Z,11.72
2017-10-13T03:59:06.330Z,11.77
2017-10-13T04:00:06.931Z,11.80
2017-10-13T04:01:07.527Z,11.75
2017-10-13T04:02:08.137Z,11.76
2017-10-13T04:03:08.743Z,11.72
2017-10-13T04:04:09.341Z,11.84
2017-10-13T04:05:09.951Z,11.90
2017-10-13T04:06:10.566Z,11.87
2017-10-13T04:07:11.173Z,11.91
2017-10-13T04:08:11.779Z,11.88
2017-10-13T04:09:12.376Z,11.87
2017-10-13T04:10:12.986Z,11.93
2017-10-13T04:11:13.873Z,12.03
2017-10-13T04:12:14.444Z,12.01
2017-10-13T04:13:15.045Z,12.01
2017-10-13T04:14:15.649Z,12.03
2017-10-13T04:15:16.247Z,12.04
2017-10-13T04:16:16.860Z,12.06
2017-10-13T04:17:17.452Z,12.03
2017-10-13T04:18:18.057Z,12.09
2017-10-13T04:19:18.654Z,12.10
2017-10-13T04:20:19.262Z,12.16
2017-10-13T04:21:19.865Z,12.13
2017-10-13T04:22:20.467Z,12.10
2017-10-13T04:23:21.078Z,12.21
2017-10-13T04:24:21.688Z,12.27
2017-10-13T04:25:22.293Z,12.21
2017-10-13T04:26:22.900Z,12.27
2017-10-13T04:27:23.509Z,12.28
2017-10-13T04:28:24.115Z,12.25
2017-10-13T04:29:24.714Z,12.28
2017-10-13T04:30:25.310Z,12.29
2017-10-13T04:31:25.917Z,12.31
2017-10-13T04:32:26.519Z,12.31
2017-10-13T04:33:27.124Z,12.29
2017-10-13T04:34:27.732Z,12.28
2017-10-13T04:35:28.342Z,12.32
2017-10-13T04:36:28.937Z,12.32
2017-10-13T04:37:29.547Z,12.25
2017-10-13T04:38:30.159Z,12.25
2017-10-13T04:39:30.763Z,12.43
2017-10-13T04:40:31.372Z,12.28
2017-10-13T04:41:31.989Z,12.43
2017-10-13T04:42:32.590Z,12.37
2017-10-13T04:43:33.190Z,12.44
2017-10-13T04:44:33.810Z,12.37
2017-10-13T04:45:34.404Z,12.40
2017-10-13T04:46:35.026Z,12.43
2017-10-13T04:47:35.630Z,12.46
2017-10-13T04:48:36.234Z,12.49
2017-10-13T04:49:36.838Z,12.49
2017-10-13T04:50:37.437Z,12.49
2017-10-13T04:51:38.037Z,12.50
2017-10-13T04:52:38.632Z,12.53
2017-10-13T04:53:39.240Z,12.53
2017-10-13T04:54:39.850Z,12.64
2017-10-13T04:55:40.458Z,12.64
2017-10-13T04:56:41.061Z,12.72
2017-10-13T04:57:41.670Z,12.65
2017-10-13T04:58:42.277Z,12.69
2017-10-13T04:59:42.873Z,12.71
2017-10-13T05:00:43.485Z,12.68
2017-10-13T05:01:44.095Z,12.80
2017-10-13T05:02:44.706Z,12.76
2017-10-13T05:03:45.319Z,12.83
2017-10-13T05:04:45.922Z,12.72
2017-10-13T05:05:46.520Z,12.87
2017-10-13T05:06:47.132Z,12.87
2017-10-13T05:07:47.739Z,12.86
2017-10-13T05:08:48.338Z,12.95
2017-10-13T05:09:48.947Z,13.01
2017-10-13T05:10:49.545Z,12.98
2017-10-13T05:11:50.155Z,13.02
2017-10-13T05:12:50.768Z,13.10
2017-10-13T05:13:51.376Z,13.16
2017-10-13T05:14:51.972Z,13.04
2017-10-13T05:15:52.571Z,13.16
2017-10-13T05:16:53.180Z,13.18
2017-10-13T05:17:53.788Z,13.18
2017-10-13T05:18:54.398Z,13.23
2017-10-13T05:19:55.018Z,13.08
2017-10-13T05:20:55.621Z,13.25
2017-10-13T05:21:56.227Z,13.22
2017-10-13T05:22:56.828Z,13.22
2017-10-13T05:23:57.425Z,13.31
2017-10-13T05:24:58.032Z,13.33
2017-10-13T05:25:58.642Z,13.33
2017-10-13T05:26:59.249Z,13.26
2017-10-13T05:27:59.861Z,13.35
2017-10-13T05:29:00.458Z,13.33
2017-10-13T05:30:01.069Z,13.33
2017-10-13T05:31:01.672Z,13.38
2017-10-13T05:32:02.282Z,13.52
2017-10-13T05:33:02.911Z,13.41
2017-10-13T05:34:03.490Z,13.39
2017-10-13T05:35:04.099Z,13.49
2017-10-13T05:36:04.712Z,13.54
2017-10-13T05:37:05.320Z,13.59
2017-10-13T05:38:05.928Z,13.75
2017-10-13T05:39:06.539Z,13.74
2017-10-13T05:40:07.150Z,13.71
2017-10-13T05:41:07.754Z,13.72
2017-10-13T05:42:08.353Z,13.78
2017-10-13T05:43:08.957Z,13.87
2017-10-13T05:44:09.565Z,13.86
2017-10-13T05:45:10.172Z,13.92
2017-10-13T05:46:10.783Z,13.90
2017-10-13T05:47:11.390Z,13.92
2017-10-13T05:48:12.007Z,13.99
2017-10-13T05:49:12.613Z,14.02
2017-10-13T05:50:13.227Z,14.11
2017-10-13T05:51:13.842Z,14.10
2017-10-13T05:52:14.453Z,14.10
2017-10-13T05:53:15.061Z,14.19
2017-10-13T05:54:15.673Z,14.14
2017-10-13T05:55:16.284Z,14.25
2017-10-13T05:56:16.896Z,14.17
2017-10-13T05:57:17.506Z,14.17
2017-10-13T05:58:18.118Z,14.14
2017-10-13T05:59:18.730Z,14.29
2017-10-13T06:00:19.343Z,14.18
2017-10-13T06:01:19.952Z,14.32
2017-10-13T06:02:20.617Z,14.36
2017-10-13T06:03:21.169Z,14.27
2017-10-13T06:04:21.788Z,14.25
2017-10-13T06:05:22.383Z,14.36
2017-10-13T06:06:22.984Z,14.30
2017-10-13T06:07:23.589Z,14.37
2017-10-13T06:08:24.204Z,14.30
2017-10-13T06:09:24.810Z,14.27
2017-10-13T06:10:25.423Z,14.35
2017-10-13T06:11:26.037Z,14.30
2017-10-13T06:12:26.639Z,14.32
2017-10-13T06:13:27.250Z,14.37
2017-10-13T06:14:27.847Z,14.32
2017-10-13T06:15:28.460Z,14.36
2017-10-13T06:16:29.062Z,14.33
2017-10-13T06:17:29.671Z,14.32
2017-10-13T06:18:30.287Z,14.35
2017-10-13T06:19:30.892Z,14.50
2017-10-13T06:20:31.493Z,14.50
2017-10-13T06:21:32.120Z,14.55
2017-10-13T06:22:32.720Z,14.40
2017-10-13T06:23:33.340Z,14.43
2017-10-13T06:24:33.954Z,14.48
2017-10-13T06:25:34.564Z,14.52
2017-10-13T06:26:35.178Z,14.47
2017-10-13T06:27:35.790Z,14.55
2017-10-13T06:28:36.407Z,14.52
2017-10-13T06:29:37.017Z,14.57
2017-10-13T06:30:37.621Z,14.58
2017-10-13T06:31:38.234Z,14.58
2017-10-13T06:32:38.852Z,14.63
2017-10-13T06:33:39.465Z,14.68
2017-10-13T06:34:40.080Z,14.66
2017-10-13T06:35:40.694Z,14.66
2017-10-13T06:36:41.307Z,14.60
2017-10-13T06:37:41.923Z,14.70
2017-10-13T06:38:42.525Z,14.68
2017-10-13T06:39:43.126Z,14.68
2017-10-13T06:40:43.742Z,14.75
2017-10-13T06:41:44.356Z,14.70
2017-10-13T06:42:44.971Z,14.69
2017-10-13T06:43:45.587Z,14.77
2017-10-13T06:44:46.198Z,14.84
2017-10-13T06:45:46.814Z,14.77
2017-10-13T06:46:47.427Z,14.86
2017-10-13T06:47:48.106Z,14.85
2017-10-13T06:48:48.706Z,14.86
2017-10-13T06:49:49.320Z,14.91
2017-10-13T06:50:49.934Z,15.03
2017-10-13T06:51:50.547Z,15.00
2017-10-13T06:52:51.149Z,15.03
2017-10-13T06:53:51.759Z,15.03
2017-10-13T06:54:52.428Z,15.18
2017-10-13T06:55:52.996Z,15.19
2017-10-13T06:56:53.609Z,15.19
2017-10-13T06:57:54.226Z,15.21
2017-10-13T06:58:54.843Z,15.24
2017-10-13T06:59:55.462Z,15.28
2017-10-13T07:00:56.069Z,15.37
2017-10-13T07:01:56.680Z,15.47
2017-10-13T07:02:57.301Z,15.49
2017-10-13T07:03:57.917Z,15.55
2017-10-13T07:04:58.528Z,15.58
2017-10-13T07:05:59.131Z,15.59
2017-10-13T07:06:59.735Z,15.55
2017-10-13T07:08:00.342Z,15.64
2017-10-13T07:09:00.949Z,15.67
2017-10-13T07:10:01.566Z,15.62
2017-10-13T07:11:02.181Z,15.64
2017-10-13T07:12:02.795Z,15.67
2017-10-13T07:13:03.403Z,15.67
2017-10-13T07:14:04.020Z,15.71
2017-10-13T07:15:04.636Z,15.67
2017-10-13T07:16:05.251Z,15.75
2017-10-13T07:17:05.867Z,15.75
2017-10-13T07:18:06.473Z,15.76
2017-10-13T07:19:07.091Z,15.79
2017-10-13T07:20:07.711Z,15.77
2017-10-13T07:21:08.309Z,15.79
2017-10-13T07:22:08.925Z,15.89
2017-10-13T07:23:09.536Z,15.83
2017-10-13T07:24:10.141Z,15.97
2017-10-13T07:25:10.756Z,15.84
2017-10-13T07:26:11.371Z,15.87
2017-10-13T07:27:11.989Z,15.94
2017-10-13T07:28:12.599Z,15.98
2017-10-13T07:29:13.201Z,16.02
2017-10-13T07:30:13.823Z,15.95
2017-10-13T07:31:14.435Z,16.04
2017-10-13T07:32:15.046Z,15.99
2017-10-13T07:33:15.652Z,16.02
2017-10-13T07:34:16.255Z,16.02
2017-10-13T07:35:16.874Z,16.01
2017-10-13T07:36:17.491Z,16.04
2017-10-13T07:37:18.092Z,15.98
2017-10-13T07:38:18.709Z,15.98
2017-10-13T07:39:19.320Z,15.98
2017-10-13T07:40:19.937Z,15.98
2017-10-13T07:41:20.543Z,16.04
2017-10-13T07:42:21.149Z,16.02
2017-10-13T07:43:21.759Z,15.97
2017-10-13T07:44:22.379Z,16.02
2017-10-13T07:45:22.989Z,16.08
2017-10-13T07:46:23.594Z,16.16
2017-10-13T07:47:24.211Z,16.21
2017-10-13T07:48:24.824Z,16.12
2017-10-13T07:49:25.432Z,16.16
2017-10-13T07:50:26.034Z,16.17
2017-10-13T07:51:26.642Z,16.17
2017-10-13T07:52:27.256Z,16.15
2017-10-13T07:53:27.880Z,16.21
2017-10-13T07:54:28.492Z,16.16
2017-10-13T07:55:29.107Z,16.15
2017-10-13T07:56:29.723Z,16.27
2017-10-13T07:57:30.334Z,16.27
2017-10-13T07:58:30.960Z,16.23
2017-10-13T07:59:31.565Z,16.31
2017-10-13T08:00:32.203Z,16.35
2017-10-13T08:01:32.812Z,16.21
2017-10-13T08:02:33.425Z,16.38
2017-10-13T08:03:34.039Z,16.41
2017-10-13T08:04:34.656Z,16.46
2017-10-13T08:05:35.270Z,16.53
2017-10-13T08:06:35.888Z,16.53
2017-10-13T08:07:36.492Z,16.49
2017-10-13T08:08:37.109Z,16.56
2017-10-13T08:09:37.715Z,16.60
2017-10-13T08:10:38.334Z,16.56
2017-10-13T08:11:38.948Z,16.60
2017-10-13T08:12:39.553Z,16.64
2017-10-13T08:13:40.177Z,16.69
2017-10-13T08:14:40.796Z,16.69
2017-10-13T08:15:41.410Z,16.64
2017-10-13T08:16:42.031Z,16.68
2017-10-13T08:17:42.649Z,16.71
2017-10-13T08:18:43.262Z,16.81
2017-10-13T08:19:43.865Z,16.89
2017-10-13T08:20:44.505Z,16.89
2017-10-13T08:21:45.093Z,16.91
2017-10-13T08:22:45.700Z,16.96
2017-10-13T08:23:46.307Z,17.01
2017-10-13T08:24:46.930Z,17.00
2017-10-13T08:25:47.556Z,17.08
2017-10-13T08:26:48.302Z,17.16
2017-10-13T08:27:48.927Z,17.15
2017-10-13T08:28:49.544Z,17.18
2017-10-13T08:29:50.169Z,17.14
2017-10-13T08:30:50.794Z,17.30
2017-10-13T08:31:51.400Z,17.23
2017-10-13T08:32:52.026Z,17.34
2017-10-13T08:33:52.652Z,17.41
2017-10-13T08:34:53.277Z,17.39
2017-10-13T08:35:54.887Z,17.45
2017-10-13T08:36:55.531Z,17.48
2017-10-13T08:37:56.145Z,17.51
2017-10-13T08:38:56.760Z,17.63
2017-10-13T08:39:57.381Z,17.70
2017-10-13T08:40:58.004Z,17.72
2017-10-13T08:41:58.635Z,17.77
2017-10-13T08:42:59.258Z,17.82
2017-10-13T08:43:59.872Z,17.85
2017-10-13T08:45:00.483Z,17.80
2017-10-13T08:46:01.106Z,17.82
2017-10-13T08:47:01.725Z,17.83
2017-10-13T08:48:02.352Z,17.86
2017-10-13T08:49:02.975Z,17.83
2017-10-13T08:50:03.600Z,17.86
2017-10-13T08:51:04.219Z,17.89
2017-10-13T08:52:04.837Z,17.98
2017-10-13T08:53:05.449Z,17.92
2017-10-13T08:54:06.065Z,18.05
2017-10-13T08:55:06.684Z,18.11
2017-10-13T08:56:07.296Z,18.07
2017-10-13T08:57:07.907Z,18.08
2017-10-13T08:58:08.533Z,18.07
2017-10-13T08:59:10.139Z,18.14
2017-10-13T09:00:10.767Z,18.10
2017-10-13T09:01:11.399Z,18.18
2017-10-13T09:02:12.021Z,18.18
2017-10-13T09:03:12.652Z,18.20
2017-10-13T09:04:13.272Z,18.25
2017-10-13T09:05:13.900Z,18.23
2017-10-13T09:06:14.519Z,18.22
2017-10-13T09:07:15.147Z,18.18
2017-10-13T09:08:15.777Z,18.08
2017-10-13T09:09:16.405Z,18.19
2017-10-13T09:10:17.029Z,18.12
2017-10-13T09:11:17.779Z,18.12
2017-10-13T09:12:18.401Z,18.07
2017-10-13T09:13:19.014Z,18.04
2017-10-13T09:14:19.631Z,18.10
2017-10-13T09:15:20.251Z,18.00
2017-10-13T09:16:20.874Z,18.01
2017-10-13T09:17:21.500Z,17.97
2017-10-13T09:18:22.120Z,18.07
2017-10-13T09:19:22.736Z,18.10
2017-10-13T09:20:23.360Z,18.04
2017-10-13T09:21:23.990Z,18.12
2017-10-13T09:22:24.613Z,18.12
2017-10-13T09:23:25.228Z,18.18
2017-10-13T09:24:25.842Z,18.18
2017-10-13T09:25:26.466Z,18.32
2017-10-13T09:26:27.088Z,18.34
2017-10-13T09:27:27.701Z,18.22
2017-10-13T09:28:28.319Z,18.35
2017-10-13T09:29:28.926Z,18.34
2017-10-13T09:30:29.547Z,18.38
2017-10-13T09:31:30.165Z,18.37
2017-10-13T09:32:30.792Z,18.34
2017-10-13T09:33:31.642Z,18.29
2017-10-13T09:34:32.263Z,18.38
2017-10-13T09:35:32.880Z,18.38
2017-10-13T09:36:33.487Z,18.44
2017-10-13T09:37:34.109Z,18.37
2017-10-13T09:38:34.725Z,18.43
2017-10-13T09:39:35.359Z,18.40
2017-10-13T09:40:35.988Z,18.47
2017-10-13T09:41:36.633Z,18.45
2017-10-13T09:42:37.252Z,18.53
2017-10-13T09:43:37.862Z,18.55
2017-10-13T09:44:38.471Z,18.59
2017-10-13T09:45:39.090Z,18.66
2017-10-13T09:46:39.705Z,18.63
2017-10-13T09:47:40.313Z,18.62
2017-10-13T09:48:40.938Z,18.69
2017-10-13T09:49:41.560Z,18.77
2017-10-13T09:50:42.178Z,18.83
2017-10-13T09:51:42.795Z,18.95
2017-10-13T09:52:43.416Z,18.99
2017-10-13T09:53:44.035Z,19.00
2017-10-13T09:54:44.650Z,19.16
2017-10-13T09:55:45.267Z,19.15
2017-10-13T09:56:45.890Z,19.37
2017-10-13T09:57:46.512Z,19.25
2017-10-13T09:58:47.135Z,19.48
2017-10-13T09:59:47.741Z,19.56
2017-10-13T10:00:48.354Z,19.55
2017-10-13T10:01:48.979Z,19.48
2017-10-13T10:02:49.604Z,19.52
2017-10-13T10:03:50.239Z,19.51
2017-10-13T10:04:50.848Z,19.47
2017-10-13T10:05:51.472Z,19.51
2017-10-13T10:06:52.094Z,19.43
2017-10-13T10:07:52.708Z,19.58
2017-10-13T10:08:53.330Z,19.67
2017-10-13T10:09:53.955Z,19.73
2017-10-13T10:10:54.601Z,19.74
2017-10-13T10:11:55.217Z,19.69
2017-10-13T10:12:55.843Z,19.58
2017-10-13T10:13:56.464Z,19.71
2017-10-13T10:14:57.090Z,19.67
2017-10-13T10:15:57.716Z,19.66
2017-10-13T10:16:58.340Z,19.64
2017-10-13T10:17:58.957Z,19.56
2017-10-13T10:18:59.573Z,19.58
2017-10-13T10:20:00.182Z,19.56
2017-10-13T10:21:00.799Z,19.48
2017-10-13T10:22:01.411Z,19.48
2017-10-13T10:23:02.033Z,19.54
2017-10-13T10:24:02.660Z,19.55
2017-10-13T10:25:03.278Z,19.64
2017-10-13T10:26:03.888Z,19.76
2017-10-13T10:27:04.505Z,19.81
2017-10-13T10:28:05.121Z,19.89
2017-10-13T10:29:05.797Z,19.94
2017-10-13T10:30:06.432Z,19.87
2017-10-13T10:31:07.050Z,19.91
2017-10-13T10:32:07.670Z,19.91
2017-10-13T10:33:08.293Z,20.06
2017-10-13T10:34:08.905Z,20.10
2017-10-13T10:35:09.541Z,20.04
2017-10-13T10:36:10.156Z,20.04
2017-10-13T10:37:10.795Z,19.99
2017-10-13T10:38:11.426Z,19.99
2017-10-13T10:39:12.048Z,20.16
2017-10-13T10:40:12.662Z,20.10
2017-10-13T10:41:13.302Z,20.28
2017-10-13T10:42:13.932Z,20.21
2017-10-13T10:43:14.570Z,20.31
2017-10-13T10:44:15.190Z,20.59
2017-10-13T10:45:15.820Z,20.35
2017-10-13T10:46:16.444Z,20.29
2017-10-13T10:47:17.072Z,20.42
2017-10-13T10:48:17.685Z,20.57
2017-10-13T10:49:18.312Z,20.77
2017-10-13T10:50:18.940Z,21.10
2017-10-13T10:51:19.547Z,21.20
2017-10-13T10:52:20.168Z,21.39
2017-10-13T10:53:20.796Z,21.51
2017-10-13T10:54:21.410Z,21.42
2017-10-13T10:55:22.039Z,21.62
2017-10-13T10:56:22.665Z,21.75
2017-10-13T10:57:23.291Z,21.72
2017-10-13T10:58:23.905Z,21.72
2017-10-13T10:59:24.529Z,21.99
2017-10-13T11:00:25.151Z,22.05
2017-10-13T11:01:25.771Z,21.86
2017-10-13T11:02:26.389Z,21.75
2017-10-13T11:03:27.008Z,21.96
2017-10-13T11:04:27.635Z,21.98
2017-10-13T11:05:28.249Z,22.02
2017-10-13T11:06:28.871Z,22.44
2017-10-13T11:07:29.495Z,22.66
2017-10-13T11:08:30.124Z,22.79
2017-10-13T11:09:30.754Z,23.27
2017-10-13T11:10:31.377Z,23.59
2017-10-13T11:11:32.001Z,23.68
2017-10-13T11:12:32.633Z,23.96
2017-10-13T11:13:33.262Z,24.13
2017-10-13T11:14:33.877Z,24.45
2017-10-13T11:15:34.502Z,24.51
2017-10-13T11:16:35.117Z,24.68
2017-10-13T11:17:35.736Z,24.99
2017-10-13T11:18:36.362Z,25.39
2017-10-13T11:19:36.986Z,25.48
2017-10-13T11:20:37.608Z,24.89
2017-10-13T11:21:38.239Z,24.99
2017-10-13T11:22:38.856Z,25.47
2017-10-13T11:23:39.482Z,25.56
2017-10-13T11:24:40.116Z,25.53
2017-10-13T11:25:40.748Z,25.41
2017-10-13T11:26:41.381Z,25.02
2017-10-13T11:27:41.990Z,24.66
2017-10-13T11:28:42.617Z,24.33
2017-10-13T11:29:43.243Z,24.13
2017-10-13T11:30:43.859Z,24.02
2017-10-13T11:31:44.489Z,24.17
2017-10-13T11:32:45.123Z,24.26
2017-10-13T11:33:45.762Z,24.16
2017-10-13T11:34:46.399Z,24.80
2017-10-13T11:35:47.019Z,24.95
2017-10-13T11:36:47.634Z,25.29
2017-10-13T11:37:48.267Z,25.50
2017-10-13T11:38:48.891Z,25.06
2017-10-13T11:39:49.521Z,24.33
2017-10-13T11:40:50.153Z,23.90
2017-10-13T11:41:50.781Z,23.61
2017-10-13T11:42:51.417Z,23.54
2017-10-13T11:43:52.050Z,23.90
2017-10-13T11:44:52.691Z,24.31
2017-10-13T11:45:53.325Z,24.80
2017-10-13T11:46:53.950Z,24.86
2017-10-13T11:47:54.584Z,25.18
2017-10-13T11:48:55.212Z,25.46
2017-10-13T11:49:55.837Z,25.58
2017-10-13T11:50:56.456Z,25.98
2017-10-13T11:51:57.068Z,25.99
2017-10-13T11:52:57.691Z,26.05
2017-10-13T11:53:58.324Z,25.94
2017-10-13T11:54:58.947Z,25.87
2017-10-13T11:55:59.574Z,26.05
2017-10-13T11:57:00.209Z,26.29
2017-10-13T11:58:00.816Z,26.56
2017-10-13T11:59:01.433Z,26.37
2017-10-13T12:00:02.058Z,26.62
2017-10-13T12:01:02.683Z,26.66
2017-10-13T12:02:03.312Z,26.37
2017-10-13T12:03:03.929Z,25.91
2017-10-13T12:04:04.556Z,25.88
2017-10-13T12:05:05.181Z,25.93
2017-10-13T12:06:05.835Z,26.21
2017-10-13T12:07:06.464Z,26.36
2017-10-13T12:08:07.074Z,26.56
2017-10-13T12:09:07.695Z,26.96
2017-10-13T12:10:08.328Z,27.47
2017-10-13T12:11:08.943Z,27.71
2017-10-13T12:12:09.572Z,27.51
2017-10-13T12:13:10.200Z,27.66
2017-10-13T12:14:10.835Z,27.93
2017-10-13T12:15:11.453Z,28.20
2017-10-13T12:16:12.084Z,27.85
2017-10-13T12:17:12.710Z,27.81
2017-10-13T12:18:13.342Z,27.78
2017-10-13T12:19:13.952Z,27.55
2017-10-13T12:20:14.582Z,27.42
2017-10-13T12:21:15.205Z,27.51
2017-10-13T12:22:15.818Z,27.03
2017-10-13T12:23:16.448Z,26.34
2017-10-13T12:24:17.075Z,25.99
2017-10-13T12:25:17.699Z,25.98
2017-10-13T12:26:18.324Z,25.71
2017-10-13T12:27:18.940Z,25.32
2017-10-13T12:28:19.565Z,24.94
2017-10-13T12:29:20.180Z,24.61
2017-10-13T12:30:20.811Z,24.31
2017-10-13T12:31:21.425Z,24.27
2017-10-13T12:32:22.038Z,24.66
2017-10-13T12:33:22.653Z,25.04
2017-10-13T12:34:23.277Z,25.50
2017-10-13T12:35:23.903Z,25.54
2017-10-13T12:36:24.527Z,25.71
2017-10-13T12:37:25.153Z,26.06
2017-10-13T12:38:25.771Z,26.58
2017-10-13T12:39:26.439Z,26.77
2017-10-13T12:40:27.059Z,27.10
2017-10-13T12:41:27.681Z,27.10
2017-10-13T12:42:28.296Z,26.87
2017-10-13T12:43:28.928Z,27.03
2017-10-13T12:44:29.554Z,27.39
2017-10-13T12:45:30.180Z,27.59
2017-10-13T12:46:30.810Z,27.95
2017-10-13T12:47:31.444Z,28.25
2017-10-13T12:48:32.077Z,28.13
2017-10-13T12:49:32.693Z,28.17
2017-10-13T12:50:33.321Z,28.25
2017-10-13T12:51:33.937Z,28.18
2017-10-13T12:52:34.555Z,28.36
2017-10-13T12:53:35.180Z,28.29
2017-10-13T12:54:35.799Z,28.25
2017-10-13T12:55:36.428Z,28.33
2017-10-13T12:56:37.060Z,28.66
2017-10-13T12:57:37.678Z,28.62
2017-10-13T12:58:38.296Z,28.33
2017-10-13T12:59:38.928Z,28.32
2017-10-13T13:00:39.541Z,28.23
2017-10-13T13:01:40.170Z,28.17
2017-10-13T13:02:40.792Z,28.30